This is the latest recevied weather packets stored in our database for station/object KJ5BMY-13. If no packets are shown the sender has not sent any weather packets the latest 10 day(s).
| Time | Temp. | Humidity | Pressure | Rain* | Wind** | Luminosity | Snow |
|---|---|---|---|---|---|---|---|
| 1777604243 | 15.56° C | 83% | 1017.7 hPa | 0 mm | - | - | - |
| 1777603939 | 15.56° C | 83% | 1017.6 hPa | 0 mm | - | - | - |
| 1777603636 | 15.56° C | 84% | 1017.5 hPa | 0 mm | - | - | - |
| 1777603333 | 15.56° C | 83% | 1017.1 hPa | 0 mm | - | - | - |
| 1777603028 | 15.56° C | 83% | 1017 hPa | 0 mm | - | - | - |
| 1777602723 | 15.56° C | 83% | 1017.2 hPa | 0 mm | - | - | - |
| 1777602418 | 16.11° C | 82% | 1017 hPa | 0 mm | - | - | - |
| 1777602115 | 16.11° C | 81% | 1017.2 hPa | 0 mm | - | - | - |
| 1777601506 | 16.11° C | 78% | 1017.3 hPa | 0 mm | - | - | - |
| 1777586031 | 16.67° C | 78% | 1016.3 hPa | 0 mm | - | - | - |
| 1777584822 | 17.22° C | 77% | 1016.1 hPa | 0 mm | - | - | - |
| 1777584520 | 17.22° C | 77% | 1016 hPa | 0 mm | - | - | - |
| 1777583915 | 17.22° C | 77% | 1015.9 hPa | 0 mm | - | - | - |
| 1777583612 | 17.22° C | 77% | 1015.9 hPa | 0 mm | - | - | - |
| 1777583311 | 17.78° C | 76% | 1015.9 hPa | 0 mm | - | - | - |
| 1777582404 | 18.33° C | 76% | 1015.5 hPa | 0 mm | - | - | - |
| 1777581803 | 17.22° C | 77% | 1015.1 hPa | 0 mm | - | - | - |
| 1777580282 | 16.67° C | 79% | 1016.4 hPa | 0 mm | - | - | - |
| 1777579674 | 16.67° C | 79% | 1016.8 hPa | 0 mm | - | - | - |
| 1777578764 | 16.67° C | 80% | 1016.4 hPa | 0 mm | - | - | - |
| 1777577248 | 16.67° C | 80% | 1016.3 hPa | 0 mm | - | - | - |
| 1777576335 | 16.67° C | 82% | 1015.4 hPa | 0 mm | - | - | - |
| 1777574210 | 16.67° C | 85% | 1015.6 hPa | 0 mm | - | - | - |
| 1777573905 | 16.67° C | 87% | 1015.7 hPa | 0 mm | - | - | - |
| 1777572091 | 15.56° C | 93% | 1015.8 hPa | 0 mm | - | - | - |
* Rain latest hour (hover to see other rain measurements)
** Current wind speed in m/s (hover to see current wind gust speed)